sensor_id;sensor_type;location;lat;lon;timestamp;P1;durP1;ratioP1;P2;durP2;ratioP2
5923;SDS011;2987;50.884;14.818;2022-11-20T00:01:35;36.23;;;18.00;;
5923;SDS011;2987;50.884;14.818;2022-11-20T00:04:01;31.03;;;16.67;;
5923;SDS011;2987;50.884;14.818;2022-11-20T00:06:28;33.53;;;17.80;;
5923;SDS011;2987;50.884;14.818;2022-11-20T00:08:55;30.97;;;17.50;;
5923;SDS011;2987;50.884;14.818;2022-11-20T00:11:24;31.10;;;17.63;;
5923;SDS011;2987;50.884;14.818;2022-11-20T00:13:56;30.77;;;16.90;;
5923;SDS011;2987;50.884;14.818;2022-11-20T00:16:26;34.63;;;16.50;;
5923;SDS011;2987;50.884;14.818;2022-11-20T00:18:54;29.97;;;16.37;;
5923;SDS011;2987;50.884;14.818;2022-11-20T00:21:21;29.87;;;15.90;;
5923;SDS011;2987;50.884;14.818;2022-11-20T00:23:50;29.03;;;15.87;;
5923;SDS011;2987;50.884;14.818;2022-11-20T00:26:18;26.77;;;15.30;;
5923;SDS011;2987;50.884;14.818;2022-11-20T00:28:49;28.30;;;15.57;;
5923;SDS011;2987;50.884;14.818;2022-11-20T00:31:18;32.13;;;17.07;;
5923;SDS011;2987;50.884;14.818;2022-11-20T00:33:45;31.43;;;17.83;;
5923;SDS011;2987;50.884;14.818;2022-11-20T00:36:13;29.93;;;16.40;;
5923;SDS011;2987;50.884;14.818;2022-11-20T00:38:41;28.50;;;16.40;;
5923;SDS011;2987;50.884;14.818;2022-11-20T00:41:09;30.77;;;17.33;;
5923;SDS011;2987;50.884;14.818;2022-11-20T00:43:37;31.00;;;16.43;;
5923;SDS011;2987;50.884;14.818;2022-11-20T00:46:04;27.67;;;14.40;;
5923;SDS011;2987;50.884;14.818;2022-11-20T00:48:32;29.20;;;16.73;;
5923;SDS011;2987;50.884;14.818;2022-11-20T00:50:58;29.93;;;16.97;;
5923;SDS011;2987;50.884;14.818;2022-11-20T00:53:25;31.77;;;17.30;;
5923;SDS011;2987;50.884;14.818;2022-11-20T00:55:55;28.77;;;16.17;;
5923;SDS011;2987;50.884;14.818;2022-11-20T00:58:24;31.30;;;17.70;;
5923;SDS011;2987;50.884;14.818;2022-11-20T01:00:54;33.60;;;16.07;;
5923;SDS011;2987;50.884;14.818;2022-11-20T01:03:27;27.93;;;15.43;;
5923;SDS011;2987;50.884;14.818;2022-11-20T01:05:58;29.70;;;16.27;;
5923;SDS011;2987;50.884;14.818;2022-11-20T01:08:25;29.53;;;15.50;;
5923;SDS011;2987;50.884;14.818;2022-11-20T01:10:58;30.00;;;16.10;;
5923;SDS011;2987;50.884;14.818;2022-11-20T01:13:25;30.10;;;16.27;;
5923;SDS011;2987;50.884;14.818;2022-11-20T01:16:08;27.83;;;16.13;;
5923;SDS011;2987;50.884;14.818;2022-11-20T01:18:36;33.03;;;16.60;;
5923;SDS011;2987;50.884;14.818;2022-11-20T01:21:06;27.80;;;16.30;;
5923;SDS011;2987;50.884;14.818;2022-11-20T01:23:34;29.47;;;16.57;;
5923;SDS011;2987;50.884;14.818;2022-11-20T01:26:03;29.93;;;16.47;;
5923;SDS011;2987;50.884;14.818;2022-11-20T01:28:32;29.83;;;16.20;;
5923;SDS011;2987;50.884;14.818;2022-11-20T01:30:58;29.37;;;16.27;;
5923;SDS011;2987;50.884;14.818;2022-11-20T01:33:26;29.93;;;16.10;;
5923;SDS011;2987;50.884;14.818;2022-11-20T01:35:53;29.53;;;15.67;;
5923;SDS011;2987;50.884;14.818;2022-11-20T01:38:28;31.57;;;16.73;;
5923;SDS011;2987;50.884;14.818;2022-11-20T01:40:54;34.43;;;17.03;;
5923;SDS011;2987;50.884;14.818;2022-11-20T01:43:21;28.47;;;14.77;;
5923;SDS011;2987;50.884;14.818;2022-11-20T01:45:52;28.17;;;16.30;;
5923;SDS011;2987;50.884;14.818;2022-11-20T01:48:25;30.77;;;16.47;;
5923;SDS011;2987;50.884;14.818;2022-11-20T01:50:57;33.17;;;17.17;;
5923;SDS011;2987;50.884;14.818;2022-11-20T01:53:30;30.53;;;16.10;;
5923;SDS011;2987;50.884;14.818;2022-11-20T01:56:00;28.13;;;15.50;;
5923;SDS011;2987;50.884;14.818;2022-11-20T01:58:32;29.77;;;15.30;;
5923;SDS011;2987;50.884;14.818;2022-11-20T02:01:01;30.33;;;16.50;;
5923;SDS011;2987;50.884;14.818;2022-11-20T02:03:28;30.03;;;16.10;;
5923;SDS011;2987;50.884;14.818;2022-11-20T02:06:03;29.93;;;16.60;;
5923;SDS011;2987;50.884;14.818;2022-11-20T02:08:38;30.10;;;16.80;;
5923;SDS011;2987;50.884;14.818;2022-11-20T02:11:04;31.40;;;16.63;;
5923;SDS011;2987;50.884;14.818;2022-11-20T02:13:31;27.73;;;16.10;;
5923;SDS011;2987;50.884;14.818;2022-11-20T02:16:18;28.97;;;15.13;;
5923;SDS011;2987;50.884;14.818;2022-11-20T02:18:49;26.27;;;15.57;;
5923;SDS011;2987;50.884;14.818;2022-11-20T02:21:21;31.87;;;15.83;;
5923;SDS011;2987;50.884;14.818;2022-11-20T02:24:11;31.80;;;17.33;;
5923;SDS011;2987;50.884;14.818;2022-11-20T02:26:45;34.40;;;16.57;;
5923;SDS011;2987;50.884;14.818;2022-11-20T02:39:19;28.67;;;15.93;;
5923;SDS011;2987;50.884;14.818;2022-11-20T02:41:46;34.00;;;17.00;;
5923;SDS011;2987;50.884;14.818;2022-11-20T02:44:12;30.17;;;15.60;;
5923;SDS011;2987;50.884;14.818;2022-11-20T02:46:38;28.83;;;16.40;;
5923;SDS011;2987;50.884;14.818;2022-11-20T02:49:05;29.83;;;15.53;;
5923;SDS011;2987;50.884;14.818;2022-11-20T02:51:31;33.27;;;16.00;;
5923;SDS011;2987;50.884;14.818;2022-11-20T02:53:58;28.93;;;15.40;;
5923;SDS011;2987;50.884;14.818;2022-11-20T02:56:24;29.57;;;15.93;;
5923;SDS011;2987;50.884;14.818;2022-11-20T02:58:51;29.67;;;15.40;;
5923;SDS011;2987;50.884;14.818;2022-11-20T03:01:17;30.97;;;16.57;;
5923;SDS011;2987;50.884;14.818;2022-11-20T03:03:43;31.93;;;16.47;;
5923;SDS011;2987;50.884;14.818;2022-11-20T03:06:09;29.83;;;14.50;;
5923;SDS011;2987;50.884;14.818;2022-11-20T03:08:35;29.87;;;14.80;;
5923;SDS011;2987;50.884;14.818;2022-11-20T03:11:02;25.37;;;14.33;;
5923;SDS011;2987;50.884;14.818;2022-11-20T03:13:30;28.03;;;14.93;;
5923;SDS011;2987;50.884;14.818;2022-11-20T03:15:56;24.87;;;14.43;;
5923;SDS011;2987;50.884;14.818;2022-11-20T03:18:23;29.47;;;15.57;;
5923;SDS011;2987;50.884;14.818;2022-11-20T03:20:49;25.43;;;15.00;;
5923;SDS011;2987;50.884;14.818;2022-11-20T03:23:15;23.83;;;13.90;;
5923;SDS011;2987;50.884;14.818;2022-11-20T03:25:41;30.37;;;15.73;;
5923;SDS011;2987;50.884;14.818;2022-11-20T03:28:07;27.67;;;15.87;;
5923;SDS011;2987;50.884;14.818;2022-11-20T03:30:33;26.53;;;15.67;;
5923;SDS011;2987;50.884;14.818;2022-11-20T03:33:00;28.37;;;14.70;;
5923;SDS011;2987;50.884;14.818;2022-11-20T03:35:26;26.30;;;15.00;;
5923;SDS011;2987;50.884;14.818;2022-11-20T03:37:52;28.90;;;15.73;;
5923;SDS011;2987;50.884;14.818;2022-11-20T03:40:19;29.63;;;15.63;;
5923;SDS011;2987;50.884;14.818;2022-11-20T03:42:44;26.73;;;14.93;;
5923;SDS011;2987;50.884;14.818;2022-11-20T03:45:11;29.37;;;15.63;;
5923;SDS011;2987;50.884;14.818;2022-11-20T03:47:44;25.33;;;14.50;;
5923;SDS011;2987;50.884;14.818;2022-11-20T03:50:12;28.50;;;14.60;;
5923;SDS011;2987;50.884;14.818;2022-11-20T03:52:39;29.60;;;15.97;;
5923;SDS011;2987;50.884;14.818;2022-11-20T03:55:06;28.50;;;15.97;;
5923;SDS011;2987;50.884;14.818;2022-11-20T03:57:32;29.53;;;14.40;;
5923;SDS011;2987;50.884;14.818;2022-11-20T03:59:59;27.97;;;15.83;;
5923;SDS011;2987;50.884;14.818;2022-11-20T04:02:25;28.43;;;15.20;;
5923;SDS011;2987;50.884;14.818;2022-11-20T04:04:51;26.57;;;15.67;;
5923;SDS011;2987;50.884;14.818;2022-11-20T04:07:17;27.83;;;15.00;;
5923;SDS011;2987;50.884;14.818;2022-11-20T04:09:43;27.97;;;15.40;;
5923;SDS011;2987;50.884;14.818;2022-11-20T04:12:09;28.63;;;15.33;;
5923;SDS011;2987;50.884;14.818;2022-11-20T04:14:35;28.73;;;15.73;;
5923;SDS011;2987;50.884;14.818;2022-11-20T04:17:02;26.20;;;14.70;;
5923;SDS011;2987;50.884;14.818;2022-11-20T04:19:29;24.50;;;14.60;;
5923;SDS011;2987;50.884;14.818;2022-11-20T04:21:55;28.03;;;15.00;;
5923;SDS011;2987;50.884;14.818;2022-11-20T04:24:21;24.97;;;13.97;;
5923;SDS011;2987;50.884;14.818;2022-11-20T04:26:47;26.17;;;14.33;;
5923;SDS011;2987;50.884;14.818;2022-11-20T04:29:13;26.87;;;15.23;;
5923;SDS011;2987;50.884;14.818;2022-11-20T04:31:39;27.00;;;15.40;;
5923;SDS011;2987;50.884;14.818;2022-11-20T04:34:06;29.20;;;15.27;;
5923;SDS011;2987;50.884;14.818;2022-11-20T04:36:33;26.60;;;13.57;;
5923;SDS011;2987;50.884;14.818;2022-11-20T04:39:00;24.07;;;13.30;;
5923;SDS011;2987;50.884;14.818;2022-11-20T04:41:29;24.47;;;13.53;;
5923;SDS011;2987;50.884;14.818;2022-11-20T04:43:58;27.20;;;14.67;;
5923;SDS011;2987;50.884;14.818;2022-11-20T04:46:29;27.03;;;15.40;;
5923;SDS011;2987;50.884;14.818;2022-11-20T04:48:57;27.00;;;15.40;;
5923;SDS011;2987;50.884;14.818;2022-11-20T04:51:24;29.30;;;15.57;;
5923;SDS011;2987;50.884;14.818;2022-11-20T04:53:51;30.40;;;16.23;;
5923;SDS011;2987;50.884;14.818;2022-11-20T04:56:17;30.87;;;16.03;;
5923;SDS011;2987;50.884;14.818;2022-11-20T04:58:43;27.27;;;14.67;;
5923;SDS011;2987;50.884;14.818;2022-11-20T05:01:11;29.07;;;15.77;;
5923;SDS011;2987;50.884;14.818;2022-11-20T05:03:40;25.83;;;15.10;;
5923;SDS011;2987;50.884;14.818;2022-11-20T05:06:07;25.07;;;15.03;;
5923;SDS011;2987;50.884;14.818;2022-11-20T05:08:34;27.03;;;15.70;;
5923;SDS011;2987;50.884;14.818;2022-11-20T05:11:01;23.33;;;14.33;;
5923;SDS011;2987;50.884;14.818;2022-11-20T05:13:29;27.77;;;14.97;;
5923;SDS011;2987;50.884;14.818;2022-11-20T05:15:55;25.57;;;14.13;;
5923;SDS011;2987;50.884;14.818;2022-11-20T05:18:26;28.33;;;14.63;;
5923;SDS011;2987;50.884;14.818;2022-11-20T09:19:58;38.80;;;20.63;;
5923;SDS011;2987;50.884;14.818;2022-11-20T09:22:24;38.13;;;21.20;;
5923;SDS011;2987;50.884;14.818;2022-11-20T09:24:51;37.07;;;20.43;;
5923;SDS011;2987;50.884;14.818;2022-11-20T09:27:17;36.47;;;19.63;;
5923;SDS011;2987;50.884;14.818;2022-11-20T09:29:46;34.73;;;19.97;;
5923;SDS011;2987;50.884;14.818;2022-11-20T09:32:12;35.90;;;20.27;;
5923;SDS011;2987;50.884;14.818;2022-11-20T09:34:38;35.43;;;18.73;;
5923;SDS011;2987;50.884;14.818;2022-11-20T09:37:04;33.33;;;17.00;;
5923;SDS011;2987;50.884;14.818;2022-11-20T09:39:30;33.10;;;19.10;;
5923;SDS011;2987;50.884;14.818;2022-11-20T09:42:01;33.87;;;20.37;;
5923;SDS011;2987;50.884;14.818;2022-11-20T09:57:51;32.80;;;18.50;;
5923;SDS011;2987;50.884;14.818;2022-11-20T10:00:18;35.03;;;18.90;;
5923;SDS011;2987;50.884;14.818;2022-11-20T10:03:04;32.80;;;18.73;;
5923;SDS011;2987;50.884;14.818;2022-11-20T10:05:46;34.23;;;18.47;;
5923;SDS011;2987;50.884;14.818;2022-11-20T10:08:18;31.77;;;17.97;;
5923;SDS011;2987;50.884;14.818;2022-11-20T10:10:50;30.53;;;18.07;;
5923;SDS011;2987;50.884;14.818;2022-11-20T10:13:26;28.93;;;16.93;;
5923;SDS011;2987;50.884;14.818;2022-11-20T10:16:09;26.30;;;15.53;;
5923;SDS011;2987;50.884;14.818;2022-11-20T10:19:02;26.70;;;16.03;;
5923;SDS011;2987;50.884;14.818;2022-11-20T10:21:59;28.00;;;16.23;;
5923;SDS011;2987;50.884;14.818;2022-11-20T10:30:08;27.33;;;15.73;;
5923;SDS011;2987;50.884;14.818;2022-11-20T10:32:38;26.57;;;16.43;;
5923;SDS011;2987;50.884;14.818;2022-11-20T10:35:17;26.60;;;16.63;;
5923;SDS011;2987;50.884;14.818;2022-11-20T10:37:55;28.53;;;17.03;;
5923;SDS011;2987;50.884;14.818;2022-11-20T10:40:34;29.23;;;16.03;;
5923;SDS011;2987;50.884;14.818;2022-11-20T10:43:29;27.00;;;16.80;;
5923;SDS011;2987;50.884;14.818;2022-11-20T10:46:00;27.07;;;17.10;;
5923;SDS011;2987;50.884;14.818;2022-11-20T10:48:32;27.77;;;15.40;;
5923;SDS011;2987;50.884;14.818;2022-11-20T10:56:50;29.00;;;17.40;;
5923;SDS011;2987;50.884;14.818;2022-11-20T11:09:52;22.67;;;13.93;;
5923;SDS011;2987;50.884;14.818;2022-11-20T11:14:50;23.20;;;14.10;;
5923;SDS011;2987;50.884;14.818;2022-11-20T11:19:56;23.63;;;14.93;;
5923;SDS011;2987;50.884;14.818;2022-11-20T11:22:45;24.13;;;14.30;;
5923;SDS011;2987;50.884;14.818;2022-11-20T11:25:29;25.70;;;15.37;;
5923;SDS011;2987;50.884;14.818;2022-11-20T11:33:10;26.87;;;15.33;;
5923;SDS011;2987;50.884;14.818;2022-11-20T11:35:47;26.07;;;16.40;;
5923;SDS011;2987;50.884;14.818;2022-11-20T11:38:21;27.87;;;15.77;;
5923;SDS011;2987;50.884;14.818;2022-11-20T11:40:53;29.53;;;16.83;;
5923;SDS011;2987;50.884;14.818;2022-11-20T11:43:22;27.67;;;17.33;;
5923;SDS011;2987;50.884;14.818;2022-11-20T11:46:28;25.37;;;15.83;;
5923;SDS011;2987;50.884;14.818;2022-11-20T11:49:15;28.53;;;17.20;;
5923;SDS011;2987;50.884;14.818;2022-11-20T11:51:56;27.10;;;16.00;;
5923;SDS011;2987;50.884;14.818;2022-11-20T11:54:47;28.83;;;16.07;;
5923;SDS011;2987;50.884;14.818;2022-11-20T11:57:28;30.13;;;17.50;;
5923;SDS011;2987;50.884;14.818;2022-11-20T12:05:26;31.13;;;17.77;;
5923;SDS011;2987;50.884;14.818;2022-11-20T12:08:02;27.67;;;16.17;;
5923;SDS011;2987;50.884;14.818;2022-11-20T12:16:19;29.83;;;16.60;;
5923;SDS011;2987;50.884;14.818;2022-11-20T12:18:48;32.37;;;17.20;;
5923;SDS011;2987;50.884;14.818;2022-11-20T12:24:06;28.30;;;16.90;;
5923;SDS011;2987;50.884;14.818;2022-11-20T12:26:56;27.57;;;16.53;;
5923;SDS011;2987;50.884;14.818;2022-11-20T12:30:02;29.50;;;17.30;;
5923;SDS011;2987;50.884;14.818;2022-11-20T13:12:02;30.53;;;17.53;;
5923;SDS011;2987;50.884;14.818;2022-11-20T13:14:35;32.00;;;18.47;;
5923;SDS011;2987;50.884;14.818;2022-11-20T13:17:10;30.60;;;17.57;;
5923;SDS011;2987;50.884;14.818;2022-11-20T13:19:49;31.07;;;17.83;;
5923;SDS011;2987;50.884;14.818;2022-11-20T13:22:26;27.87;;;16.67;;
5923;SDS011;2987;50.884;14.818;2022-11-20T13:24:54;31.50;;;17.23;;
5923;SDS011;2987;50.884;14.818;2022-11-20T13:27:21;31.40;;;18.13;;
5923;SDS011;2987;50.884;14.818;2022-11-20T13:32:48;31.97;;;18.40;;
5923;SDS011;2987;50.884;14.818;2022-11-20T13:35:23;31.87;;;18.73;;
5923;SDS011;2987;50.884;14.818;2022-11-20T13:38:01;35.60;;;20.33;;
5923;SDS011;2987;50.884;14.818;2022-11-20T13:40:31;36.33;;;20.73;;
5923;SDS011;2987;50.884;14.818;2022-11-20T13:48:22;38.20;;;21.07;;
5923;SDS011;2987;50.884;14.818;2022-11-20T13:51:10;42.17;;;23.20;;
5923;SDS011;2987;50.884;14.818;2022-11-20T14:02:05;40.73;;;22.53;;
5923;SDS011;2987;50.884;14.818;2022-11-20T14:04:42;42.73;;;23.47;;
5923;SDS011;2987;50.884;14.818;2022-11-20T14:07:11;40.23;;;23.03;;
5923;SDS011;2987;50.884;14.818;2022-11-20T14:09:48;42.80;;;23.57;;
5923;SDS011;2987;50.884;14.818;2022-11-20T14:12:18;44.37;;;24.53;;
5923;SDS011;2987;50.884;14.818;2022-11-20T14:14:49;48.07;;;23.07;;
5923;SDS011;2987;50.884;14.818;2022-11-20T14:17:18;41.83;;;22.77;;
5923;SDS011;2987;50.884;14.818;2022-11-20T14:19:48;46.73;;;25.73;;
5923;SDS011;2987;50.884;14.818;2022-11-20T14:22:21;47.57;;;26.53;;
5923;SDS011;2987;50.884;14.818;2022-11-20T14:25:17;40.80;;;23.77;;
5923;SDS011;2987;50.884;14.818;2022-11-20T14:27:49;47.03;;;24.73;;
5923;SDS011;2987;50.884;14.818;2022-11-20T14:30:19;47.90;;;25.63;;
5923;SDS011;2987;50.884;14.818;2022-11-20T14:32:49;47.83;;;24.87;;
5923;SDS011;2987;50.884;14.818;2022-11-20T14:35:24;46.10;;;25.50;;
5923;SDS011;2987;50.884;14.818;2022-11-20T14:37:52;45.57;;;24.63;;
5923;SDS011;2987;50.884;14.818;2022-11-20T14:40:24;44.37;;;24.50;;
5923;SDS011;2987;50.884;14.818;2022-11-20T14:42:52;46.27;;;23.97;;
5923;SDS011;2987;50.884;14.818;2022-11-20T14:45:18;43.30;;;24.50;;
5923;SDS011;2987;50.884;14.818;2022-11-20T14:47:46;47.30;;;25.67;;
5923;SDS011;2987;50.884;14.818;2022-11-20T14:50:22;46.73;;;24.77;;
5923;SDS011;2987;50.884;14.818;2022-11-20T14:52:54;43.10;;;23.83;;
5923;SDS011;2987;50.884;14.818;2022-11-20T14:55:25;46.10;;;25.40;;
5923;SDS011;2987;50.884;14.818;2022-11-20T14:57:54;50.77;;;27.00;;
5923;SDS011;2987;50.884;14.818;2022-11-20T15:00:23;47.83;;;26.60;;
5923;SDS011;2987;50.884;14.818;2022-11-20T15:02:50;48.03;;;25.83;;
5923;SDS011;2987;50.884;14.818;2022-11-20T15:05:18;47.70;;;25.90;;
5923;SDS011;2987;50.884;14.818;2022-11-20T15:07:52;48.50;;;25.17;;
5923;SDS011;2987;50.884;14.818;2022-11-20T15:10:36;47.27;;;25.60;;
5923;SDS011;2987;50.884;14.818;2022-11-20T15:13:06;47.33;;;26.07;;
5923;SDS011;2987;50.884;14.818;2022-11-20T15:15:43;47.70;;;25.40;;
5923;SDS011;2987;50.884;14.818;2022-11-20T15:18:14;51.87;;;25.83;;
5923;SDS011;2987;50.884;14.818;2022-11-20T15:20:44;53.37;;;26.37;;
5923;SDS011;2987;50.884;14.818;2022-11-20T15:23:12;54.43;;;28.23;;
5923;SDS011;2987;50.884;14.818;2022-11-20T15:25:40;51.77;;;27.67;;
5923;SDS011;2987;50.884;14.818;2022-11-20T15:28:12;52.07;;;27.20;;
5923;SDS011;2987;50.884;14.818;2022-11-20T15:30:50;55.20;;;27.77;;
5923;SDS011;2987;50.884;14.818;2022-11-20T15:33:18;57.27;;;29.20;;
5923;SDS011;2987;50.884;14.818;2022-11-20T15:35:44;55.80;;;28.23;;
5923;SDS011;2987;50.884;14.818;2022-11-20T15:38:10;55.47;;;28.40;;
5923;SDS011;2987;50.884;14.818;2022-11-20T15:40:37;55.33;;;28.53;;
5923;SDS011;2987;50.884;14.818;2022-11-20T15:43:03;53.63;;;27.87;;
5923;SDS011;2987;50.884;14.818;2022-11-20T15:45:31;53.40;;;27.73;;
5923;SDS011;2987;50.884;14.818;2022-11-20T15:48:04;52.63;;;27.00;;
5923;SDS011;2987;50.884;14.818;2022-11-20T15:50:37;52.67;;;26.70;;
5923;SDS011;2987;50.884;14.818;2022-11-20T15:53:09;53.53;;;28.17;;
5923;SDS011;2987;50.884;14.818;2022-11-20T15:55:36;56.07;;;29.53;;
5923;SDS011;2987;50.884;14.818;2022-11-20T15:58:02;54.27;;;27.47;;
5923;SDS011;2987;50.884;14.818;2022-11-20T16:00:28;51.30;;;28.40;;
5923;SDS011;2987;50.884;14.818;2022-11-20T16:02:54;51.03;;;27.50;;
5923;SDS011;2987;50.884;14.818;2022-11-20T16:05:20;56.10;;;29.63;;
5923;SDS011;2987;50.884;14.818;2022-11-20T16:07:49;52.83;;;27.80;;
5923;SDS011;2987;50.884;14.818;2022-11-20T16:10:16;52.97;;;28.03;;
5923;SDS011;2987;50.884;14.818;2022-11-20T16:12:43;55.00;;;27.30;;
5923;SDS011;2987;50.884;14.818;2022-11-20T16:15:29;58.87;;;28.23;;
5923;SDS011;2987;50.884;14.818;2022-11-20T16:18:13;50.27;;;27.07;;
5923;SDS011;2987;50.884;14.818;2022-11-20T16:20:41;51.37;;;27.53;;
5923;SDS011;2987;50.884;14.818;2022-11-20T16:23:07;62.43;;;29.50;;
5923;SDS011;2987;50.884;14.818;2022-11-20T16:25:34;49.40;;;26.53;;
5923;SDS011;2987;50.884;14.818;2022-11-20T16:28:00;57.07;;;27.70;;
5923;SDS011;2987;50.884;14.818;2022-11-20T16:30:28;58.33;;;28.23;;
5923;SDS011;2987;50.884;14.818;2022-11-20T16:32:54;52.67;;;27.83;;
5923;SDS011;2987;50.884;14.818;2022-11-20T16:35:20;52.50;;;26.63;;
5923;SDS011;2987;50.884;14.818;2022-11-20T16:37:46;57.43;;;29.13;;
5923;SDS011;2987;50.884;14.818;2022-11-20T16:40:12;53.70;;;29.03;;
5923;SDS011;2987;50.884;14.818;2022-11-20T16:42:38;57.47;;;29.97;;
5923;SDS011;2987;50.884;14.818;2022-11-20T16:45:04;54.70;;;29.63;;
5923;SDS011;2987;50.884;14.818;2022-11-20T16:47:51;59.43;;;30.47;;
5923;SDS011;2987;50.884;14.818;2022-11-20T16:50:17;53.47;;;29.07;;
5923;SDS011;2987;50.884;14.818;2022-11-20T16:52:43;55.47;;;28.57;;
5923;SDS011;2987;50.884;14.818;2022-11-20T16:55:09;55.67;;;28.30;;
5923;SDS011;2987;50.884;14.818;2022-11-20T16:57:35;56.93;;;29.43;;
5923;SDS011;2987;50.884;14.818;2022-11-20T17:00:05;58.50;;;29.90;;
5923;SDS011;2987;50.884;14.818;2022-11-20T17:02:32;55.17;;;30.07;;
5923;SDS011;2987;50.884;14.818;2022-11-20T17:04:58;56.97;;;29.17;;
5923;SDS011;2987;50.884;14.818;2022-11-20T17:07:24;55.20;;;27.97;;
5923;SDS011;2987;50.884;14.818;2022-11-20T17:09:50;58.40;;;30.10;;
5923;SDS011;2987;50.884;14.818;2022-11-20T17:12:16;56.13;;;30.33;;
5923;SDS011;2987;50.884;14.818;2022-11-20T17:14:43;63.23;;;30.67;;
5923;SDS011;2987;50.884;14.818;2022-11-20T17:17:09;57.77;;;29.77;;
5923;SDS011;2987;50.884;14.818;2022-11-20T17:19:35;59.93;;;30.77;;
5923;SDS011;2987;50.884;14.818;2022-11-20T17:22:01;59.70;;;29.80;;
5923;SDS011;2987;50.884;14.818;2022-11-20T17:24:27;60.63;;;30.67;;
5923;SDS011;2987;50.884;14.818;2022-11-20T17:26:53;61.80;;;30.07;;
5923;SDS011;2987;50.884;14.818;2022-11-20T17:29:19;63.57;;;29.97;;
5923;SDS011;2987;50.884;14.818;2022-11-20T17:31:49;63.43;;;31.20;;
5923;SDS011;2987;50.884;14.818;2022-11-20T17:34:15;63.53;;;30.57;;
5923;SDS011;2987;50.884;14.818;2022-11-20T17:36:42;64.57;;;31.77;;
5923;SDS011;2987;50.884;14.818;2022-11-20T17:39:10;63.83;;;31.60;;
5923;SDS011;2987;50.884;14.818;2022-11-20T17:41:37;67.73;;;31.00;;
5923;SDS011;2987;50.884;14.818;2022-11-20T17:44:03;66.43;;;32.17;;
5923;SDS011;2987;50.884;14.818;2022-11-20T17:46:30;67.47;;;33.17;;
5923;SDS011;2987;50.884;14.818;2022-11-20T17:49:00;65.07;;;32.37;;
5923;SDS011;2987;50.884;14.818;2022-11-20T17:51:28;61.63;;;31.73;;
5923;SDS011;2987;50.884;14.818;2022-11-20T17:53:57;64.77;;;31.90;;
5923;SDS011;2987;50.884;14.818;2022-11-20T17:56:25;66.77;;;31.30;;
5923;SDS011;2987;50.884;14.818;2022-11-20T17:59:15;64.97;;;31.30;;
5923;SDS011;2987;50.884;14.818;2022-11-20T18:01:41;68.10;;;31.13;;
5923;SDS011;2987;50.884;14.818;2022-11-20T18:04:08;64.13;;;31.10;;
5923;SDS011;2987;50.884;14.818;2022-11-20T18:06:34;56.63;;;28.00;;
5923;SDS011;2987;50.884;14.818;2022-11-20T18:09:02;64.40;;;30.17;;
5923;SDS011;2987;50.884;14.818;2022-11-20T18:11:31;57.37;;;29.77;;
5923;SDS011;2987;50.884;14.818;2022-11-20T18:14:01;68.17;;;31.07;;
5923;SDS011;2987;50.884;14.818;2022-11-20T18:16:50;60.53;;;29.93;;
5923;SDS011;2987;50.884;14.818;2022-11-20T18:19:21;58.73;;;30.27;;
5923;SDS011;2987;50.884;14.818;2022-11-20T18:21:50;64.87;;;30.40;;
5923;SDS011;2987;50.884;14.818;2022-11-20T18:24:16;67.30;;;32.83;;
5923;SDS011;2987;50.884;14.818;2022-11-20T18:26:43;65.57;;;31.33;;
5923;SDS011;2987;50.884;14.818;2022-11-20T18:29:09;73.20;;;32.67;;
5923;SDS011;2987;50.884;14.818;2022-11-20T18:31:36;62.97;;;30.77;;
5923;SDS011;2987;50.884;14.818;2022-11-20T18:34:04;62.90;;;31.17;;
5923;SDS011;2987;50.884;14.818;2022-11-20T18:36:31;63.53;;;32.43;;
5923;SDS011;2987;50.884;14.818;2022-11-20T18:38:59;63.47;;;32.37;;
5923;SDS011;2987;50.884;14.818;2022-11-20T18:41:27;69.97;;;33.10;;
5923;SDS011;2987;50.884;14.818;2022-11-20T18:44:19;60.03;;;31.33;;
5923;SDS011;2987;50.884;14.818;2022-11-20T18:47:06;65.43;;;31.97;;
5923;SDS011;2987;50.884;14.818;2022-11-20T18:49:34;64.57;;;31.10;;
5923;SDS011;2987;50.884;14.818;2022-11-20T18:52:00;61.17;;;29.47;;
5923;SDS011;2987;50.884;14.818;2022-11-20T18:54:26;57.10;;;28.40;;
5923;SDS011;2987;50.884;14.818;2022-11-20T18:56:52;60.80;;;30.50;;
5923;SDS011;2987;50.884;14.818;2022-11-20T18:59:18;61.23;;;29.10;;
5923;SDS011;2987;50.884;14.818;2022-11-20T19:01:46;59.33;;;28.77;;
5923;SDS011;2987;50.884;14.818;2022-11-20T19:04:14;60.10;;;29.93;;
5923;SDS011;2987;50.884;14.818;2022-11-20T19:06:42;62.27;;;30.77;;
5923;SDS011;2987;50.884;14.818;2022-11-20T19:09:11;54.70;;;28.47;;
5923;SDS011;2987;50.884;14.818;2022-11-20T19:11:39;60.60;;;29.97;;
5923;SDS011;2987;50.884;14.818;2022-11-20T19:14:06;59.10;;;28.37;;
5923;SDS011;2987;50.884;14.818;2022-11-20T19:16:33;67.77;;;30.43;;
5923;SDS011;2987;50.884;14.818;2022-11-20T19:19:00;59.23;;;28.63;;
5923;SDS011;2987;50.884;14.818;2022-11-20T19:21:28;60.00;;;28.13;;
5923;SDS011;2987;50.884;14.818;2022-11-20T19:23:55;59.50;;;28.50;;
5923;SDS011;2987;50.884;14.818;2022-11-20T19:26:25;59.40;;;27.93;;
5923;SDS011;2987;50.884;14.818;2022-11-20T19:28:51;53.93;;;27.13;;
5923;SDS011;2987;50.884;14.818;2022-11-20T19:31:20;58.50;;;28.63;;
5923;SDS011;2987;50.884;14.818;2022-11-20T19:33:51;61.23;;;28.80;;
5923;SDS011;2987;50.884;14.818;2022-11-20T19:36:22;58.70;;;27.73;;
5923;SDS011;2987;50.884;14.818;2022-11-20T19:38:50;58.90;;;27.80;;
5923;SDS011;2987;50.884;14.818;2022-11-20T19:41:23;57.70;;;27.97;;
5923;SDS011;2987;50.884;14.818;2022-11-20T19:44:04;52.87;;;26.80;;
5923;SDS011;2987;50.884;14.818;2022-11-20T19:46:34;63.83;;;28.73;;
5923;SDS011;2987;50.884;14.818;2022-11-20T19:49:02;63.13;;;28.50;;
5923;SDS011;2987;50.884;14.818;2022-11-20T19:51:30;59.37;;;28.00;;
5923;SDS011;2987;50.884;14.818;2022-11-20T19:54:00;60.00;;;26.97;;
5923;SDS011;2987;50.884;14.818;2022-11-20T19:56:27;59.07;;;27.73;;
5923;SDS011;2987;50.884;14.818;2022-11-20T19:58:55;65.60;;;27.83;;
5923;SDS011;2987;50.884;14.818;2022-11-20T20:01:23;55.63;;;26.13;;
5923;SDS011;2987;50.884;14.818;2022-11-20T20:03:52;54.27;;;27.50;;
5923;SDS011;2987;50.884;14.818;2022-11-20T20:06:20;54.37;;;26.63;;
5923;SDS011;2987;50.884;14.818;2022-11-20T20:08:56;51.73;;;24.80;;
5923;SDS011;2987;50.884;14.818;2022-11-20T20:11:25;59.43;;;26.87;;
5923;SDS011;2987;50.884;14.818;2022-11-20T20:13:53;50.97;;;25.00;;
5923;SDS011;2987;50.884;14.818;2022-11-20T20:16:21;50.33;;;26.00;;
5923;SDS011;2987;50.884;14.818;2022-11-20T20:18:52;51.13;;;25.73;;
5923;SDS011;2987;50.884;14.818;2022-11-20T20:21:20;56.83;;;26.40;;
5923;SDS011;2987;50.884;14.818;2022-11-20T20:23:50;55.70;;;25.33;;
5923;SDS011;2987;50.884;14.818;2022-11-20T20:26:18;55.00;;;27.13;;
5923;SDS011;2987;50.884;14.818;2022-11-20T20:28:45;57.73;;;27.43;;
5923;SDS011;2987;50.884;14.818;2022-11-20T20:31:12;62.47;;;27.37;;
5923;SDS011;2987;50.884;14.818;2022-11-20T20:33:41;54.80;;;26.40;;
5923;SDS011;2987;50.884;14.818;2022-11-20T20:36:08;55.40;;;27.13;;
5923;SDS011;2987;50.884;14.818;2022-11-20T20:38:37;52.80;;;27.03;;
5923;SDS011;2987;50.884;14.818;2022-11-20T20:41:04;52.00;;;26.60;;
5923;SDS011;2987;50.884;14.818;2022-11-20T20:43:30;55.23;;;26.80;;
5923;SDS011;2987;50.884;14.818;2022-11-20T20:46:17;55.43;;;25.97;;
5923;SDS011;2987;50.884;14.818;2022-11-20T20:48:43;52.50;;;25.73;;
5923;SDS011;2987;50.884;14.818;2022-11-20T20:51:09;55.03;;;27.77;;
5923;SDS011;2987;50.884;14.818;2022-11-20T20:53:35;59.70;;;27.23;;
5923;SDS011;2987;50.884;14.818;2022-11-20T20:56:01;55.63;;;27.57;;